San Juan, Argentina
Current Conditions -  °F | °C
As of 3:00 PM on Thursday 23 Oct 2014 (Local Time) from SAME Reporting Station
Few Clouds Few Clouds  
Wind Chill: 90°   Ceiling: Unl
Heat Index: 90°   Visibility: 6mi
Dew Point: 55°   Wind: 8mph
Humidity: 31%   Direction: 70°ENE
Pressure: 29.88"   Gusts: NA
Location:  31.54°S, 68.53°W
Report Text: SAME 231800Z 07007KT 9999 FEW050TCU 32/13 Q1012
Loading
Personal Weather Stations






























Interactive Weather Map
Tropical Storm Tracking
New forecast layout! Learn more

10-Day Weather Forecast

Advertisements
Track Severe Weather on mobile